Terminal Aerodrome Forecast
Issued by NWS

Home | Current Version | Previous Version | Text Only | Print | Product List | Glossary On
Versions: 1 2 3 4 5 6 7 8 9 10 11 12 13 14 15 16 17
000
FTUS43 KMPX 041331 AAA
TAFAXN
TAF AMD
KAXN 041331Z 0414/0512 29010KT P6SM FEW030
      TEMPO 0414/0415 5SM -SHSN BKN030
     FM041500 31015G22KT P6SM SCT030
     FM050100 30007KT P6SM SKC
     FM050700 27004KT P6SM SKC=

USA.gov is the U.S. government's official web portal to all federal, state and local government web resources and services.